DLH6149 SBGR-SBGL
Flight info
| Callsign | DLH6149 |
|---|---|
| Flight time | 0h 33m |
| Altitude | 23000 |
| Route | UREMI UZ42 VUREP |
| Aircraft | A346/H-SDE2E3FGHIJ3J4J5M1RWXY/LB1D1 |
Departure
| Time | 2026-05-06 18:27 |
|---|---|
| Airport | São Paulo/Guarulhos–Governor André Franco Montoro International Airport (SBGR) |
Arrival
| Time | 2026-05-06 19:00 |
|---|---|
| Airport | Rio Galeão – Tom Jobim International Airport (SBGL) |
| Time | Latitude | Longitude | Altitude | Speed | Heading |
|---|---|---|---|---|---|
| 2026-05-06 18:05 | -23.42742 | -46.47255 | 2469 ft | 0 kts | 255° |
| 2026-05-06 18:17 | -23.42736 | -46.47232 | 2473 ft | 0 kts | 255° |
| 2026-05-06 18:17 | -23.42729 | -46.47204 | 2475 ft | 0 kts | 255° |
| 2026-05-06 18:17 | -23.42722 | -46.47176 | 2470 ft | 0 kts | 255° |
| 2026-05-06 18:18 | -23.42715 | -46.47149 | 2475 ft | 0 kts | 255° |
| 2026-05-06 18:18 | -23.42714 | -46.47144 | 2475 ft | 0 kts | 255° |
| 2026-05-06 18:19 | -23.42715 | -46.47147 | 2470 ft | 1 kts | 252° |
| 2026-05-06 18:19 | -23.42718 | -46.47152 | 2470 ft | 1 kts | 233° |
| 2026-05-06 18:20 | -23.42726 | -46.47159 | 2473 ft | 1 kts | 195° |
| 2026-05-06 18:20 | -23.42734 | -46.47157 | 2473 ft | 0 kts | 164° |
| 2026-05-06 18:21 | -23.42735 | -46.47157 | 2470 ft | 1 kts | 164° |
| 2026-05-06 18:21 | -23.42750 | -46.47152 | 2471 ft | 4 kts | 164° |
| 2026-05-06 18:22 | -23.42789 | -46.47140 | 2471 ft | 7 kts | 163° |
| 2026-05-06 18:22 | -23.42849 | -46.47120 | 2472 ft | 10 kts | 162° |
| 2026-05-06 18:22 | -23.42893 | -46.47106 | 2473 ft | 7 kts | 171° |
| 2026-05-06 18:22 | -23.42927 | -46.47133 | 2473 ft | 8 kts | 242° |
| 2026-05-06 18:23 | -23.42949 | -46.47202 | 2474 ft | 11 kts | 252° |
| 2026-05-06 18:23 | -23.42975 | -46.47293 | 2469 ft | 14 kts | 253° |
| 2026-05-06 18:23 | -23.43005 | -46.47406 | 2473 ft | 17 kts | 254° |
| 2026-05-06 18:23 | -23.43039 | -46.47537 | 2470 ft | 19 kts | 253° |
| 2026-05-06 18:24 | -23.43080 | -46.47685 | 2473 ft | 21 kts | 253° |
| 2026-05-06 18:24 | -23.43124 | -46.47848 | 2473 ft | 23 kts | 253° |
| 2026-05-06 18:24 | -23.43172 | -46.48025 | 2472 ft | 25 kts | 253° |
| 2026-05-06 18:24 | -23.43222 | -46.48210 | 2474 ft | 26 kts | 253° |
| 2026-05-06 18:25 | -23.43241 | -46.48278 | 2472 ft | 4 kts | 253° |
| 2026-05-06 18:25 | -23.43252 | -46.48319 | 2471 ft | 7 kts | 249° |
| 2026-05-06 18:25 | -23.43290 | -46.48362 | 2472 ft | 8 kts | 201° |
| 2026-05-06 18:25 | -23.43354 | -46.48349 | 2473 ft | 11 kts | 162° |
| 2026-05-06 18:26 | -23.43388 | -46.48338 | 2473 ft | 4 kts | 160° |
| 2026-05-06 18:26 | -23.43413 | -46.48313 | 2474 ft | 6 kts | 111° |
| 2026-05-06 18:26 | -23.43410 | -46.48274 | 2474 ft | 0 kts | 76° |
| 2026-05-06 18:26 | -23.43376 | -46.48142 | 2470 ft | 51 kts | 73° |
| 2026-05-06 18:27 | -23.43209 | -46.47527 | 2472 ft | 116 kts | 73° |
| 2026-05-06 18:27 | -23.42929 | -46.46492 | 2475 ft | 166 kts | 74° |
| 2026-05-06 18:27 | -23.42594 | -46.45202 | 2882 ft | 177 kts | 74° |
| 2026-05-06 18:27 | -23.42269 | -46.43923 | 3630 ft | 177 kts | 74° |
| 2026-05-06 18:28 | -23.41919 | -46.42603 | 4264 ft | 186 kts | 73° |
| 2026-05-06 18:28 | -23.41515 | -46.41209 | 4891 ft | 200 kts | 72° |
| 2026-05-06 18:28 | -23.41051 | -46.39714 | 5479 ft | 215 kts | 72° |
| 2026-05-06 18:28 | -23.40553 | -46.38095 | 5987 ft | 236 kts | 72° |
| 2026-05-06 18:29 | -23.40242 | -46.36264 | 6541 ft | 256 kts | 90° |
| 2026-05-06 18:29 | -23.40567 | -46.34308 | 7126 ft | 274 kts | 107° |
| 2026-05-06 18:29 | -23.41199 | -46.32320 | 7970 ft | 280 kts | 108° |
| 2026-05-06 18:29 | -23.41868 | -46.30313 | 8918 ft | 283 kts | 108° |
| 2026-05-06 18:30 | -23.42548 | -46.28272 | 9731 ft | 289 kts | 108° |
| 2026-05-06 18:30 | -23.43219 | -46.26179 | 10634 ft | 293 kts | 107° |
| 2026-05-06 18:30 | -23.43805 | -46.23993 | 11256 ft | 308 kts | 104° |
| 2026-05-06 18:30 | -23.44284 | -46.21675 | 11747 ft | 326 kts | 100° |
| 2026-05-06 18:31 | -23.44722 | -46.19186 | 12230 ft | 344 kts | 100° |
| 2026-05-06 18:31 | -23.45177 | -46.16552 | 12667 ft | 362 kts | 101° |
| 2026-05-06 18:31 | -23.45655 | -46.13784 | 13083 ft | 379 kts | 101° |
| 2026-05-06 18:31 | -23.46152 | -46.10914 | 13719 ft | 388 kts | 101° |
| 2026-05-06 18:32 | -23.46657 | -46.08005 | 14463 ft | 392 kts | 101° |
| 2026-05-06 18:32 | -23.47169 | -46.05057 | 15160 ft | 397 kts | 102° |
| 2026-05-06 18:32 | -23.47683 | -46.02074 | 15868 ft | 401 kts | 102° |
| 2026-05-06 18:32 | -23.48198 | -45.99105 | 16553 ft | 406 kts | 102° |
| 2026-05-06 18:33 | -23.48665 | -45.96033 | 17210 ft | 413 kts | 97° |
| 2026-05-06 18:33 | -23.48727 | -45.92878 | 17909 ft | 420 kts | 88° |
| 2026-05-06 18:33 | -23.48330 | -45.89695 | 18572 ft | 427 kts | 79° |
| 2026-05-06 18:33 | -23.47742 | -45.87082 | 19060 ft | 431 kts | 77° |
| 2026-05-06 18:34 | -23.47034 | -45.84182 | 19679 ft | 433 kts | 77° |
| 2026-05-06 18:34 | -23.46243 | -45.81006 | 20503 ft | 431 kts | 76° |
| 2026-05-06 18:34 | -23.45467 | -45.77891 | 21352 ft | 430 kts | 76° |
| 2026-05-06 18:34 | -23.44691 | -45.74751 | 22239 ft | 428 kts | 76° |
| 2026-05-06 18:35 | -23.43918 | -45.71618 | 23129 ft | 427 kts | 76° |
| 2026-05-06 18:35 | -23.43147 | -45.68484 | 23944 ft | 427 kts | 76° |
| 2026-05-06 18:35 | -23.42371 | -45.65343 | 24543 ft | 431 kts | 77° |
| 2026-05-06 18:35 | -23.41588 | -45.62169 | 24955 ft | 436 kts | 77° |
| 2026-05-06 18:36 | -23.40799 | -45.58965 | 25122 ft | 439 kts | 77° |
| 2026-05-06 18:36 | -23.40008 | -45.55748 | 25117 ft | 439 kts | 77° |
| 2026-05-06 18:36 | -23.39212 | -45.52517 | 25119 ft | 439 kts | 77° |
| 2026-05-06 18:36 | -23.38479 | -45.49294 | 25122 ft | 438 kts | 78° |
| 2026-05-06 18:37 | -23.37793 | -45.46091 | 25124 ft | 438 kts | 79° |
| 2026-05-06 18:37 | -23.37104 | -45.42849 | 25120 ft | 438 kts | 79° |
| 2026-05-06 18:37 | -23.36417 | -45.39613 | 25124 ft | 438 kts | 79° |
| 2026-05-06 18:37 | -23.35728 | -45.36376 | 25124 ft | 438 kts | 79° |
| 2026-05-06 18:38 | -23.35036 | -45.33140 | 25122 ft | 438 kts | 78° |
| 2026-05-06 18:38 | -23.34342 | -45.29904 | 25125 ft | 438 kts | 78° |
| 2026-05-06 18:38 | -23.33649 | -45.26672 | 25121 ft | 438 kts | 78° |
| 2026-05-06 18:38 | -23.32963 | -45.23479 | 25127 ft | 438 kts | 78° |
| 2026-05-06 18:39 | -23.32263 | -45.20229 | 25127 ft | 438 kts | 78° |
| 2026-05-06 18:39 | -23.31568 | -45.16995 | 25130 ft | 438 kts | 78° |
| 2026-05-06 18:39 | -23.30872 | -45.13764 | 25127 ft | 438 kts | 78° |
| 2026-05-06 18:40 | -23.29479 | -45.07305 | 25128 ft | 438 kts | 78° |
| 2026-05-06 18:40 | -23.28782 | -45.04078 | 25129 ft | 437 kts | 78° |
| 2026-05-06 18:40 | -23.28084 | -45.00850 | 25128 ft | 437 kts | 78° |
| 2026-05-06 18:40 | -23.27384 | -44.97617 | 25124 ft | 437 kts | 78° |
| 2026-05-06 18:41 | -23.26695 | -44.94432 | 25130 ft | 437 kts | 78° |
| 2026-05-06 18:41 | -23.25994 | -44.91203 | 25132 ft | 437 kts | 78° |
| 2026-05-06 18:41 | -23.25295 | -44.87980 | 25129 ft | 437 kts | 78° |
| 2026-05-06 18:41 | -23.24593 | -44.84751 | 25143 ft | 437 kts | 78° |
| 2026-05-06 18:42 | -23.23892 | -44.81526 | 25135 ft | 437 kts | 78° |
| 2026-05-06 18:42 | -23.23188 | -44.78293 | 25139 ft | 437 kts | 78° |
| 2026-05-06 18:42 | -23.22486 | -44.75069 | 25132 ft | 437 kts | 78° |
| 2026-05-06 18:42 | -23.21793 | -44.71893 | 25129 ft | 437 kts | 78° |
| 2026-05-06 18:43 | -23.21088 | -44.68664 | 25126 ft | 437 kts | 78° |
| 2026-05-06 18:43 | -23.20382 | -44.65439 | 25122 ft | 437 kts | 78° |
| 2026-05-06 18:43 | -23.19677 | -44.62217 | 25122 ft | 437 kts | 78° |
| 2026-05-06 18:43 | -23.18961 | -44.58982 | 25121 ft | 438 kts | 77° |
| 2026-05-06 18:44 | -23.18088 | -44.55806 | 25120 ft | 438 kts | 72° |
| 2026-05-06 18:44 | -23.17006 | -44.52741 | 25062 ft | 435 kts | 68° |
| 2026-05-06 18:44 | -23.15749 | -44.49761 | 24565 ft | 434 kts | 65° |
| 2026-05-06 18:44 | -23.14431 | -44.46761 | 23597 ft | 445 kts | 65° |
| 2026-05-06 18:45 | -23.13076 | -44.43711 | 22790 ft | 447 kts | 65° |
| 2026-05-06 18:45 | -23.11723 | -44.40670 | 22161 ft | 445 kts | 65° |
| 2026-05-06 18:45 | -23.10376 | -44.37637 | 21456 ft | 445 kts | 65° |
| 2026-05-06 18:45 | -23.09465 | -44.35583 | 20967 ft | 445 kts | 65° |
| 2026-05-06 18:46 | -23.07682 | -44.31556 | 20010 ft | 446 kts | 65° |
| 2026-05-06 18:46 | -23.06338 | -44.28521 | 19366 ft | 444 kts | 65° |
| 2026-05-06 18:46 | -23.05003 | -44.25504 | 18759 ft | 441 kts | 65° |
| 2026-05-06 18:46 | -23.03703 | -44.22566 | 18193 ft | 437 kts | 65° |
| 2026-05-06 18:47 | -23.02483 | -44.19806 | 17726 ft | 430 kts | 65° |
| 2026-05-06 18:47 | -23.01211 | -44.16930 | 17229 ft | 424 kts | 65° |
| 2026-05-06 18:47 | -22.99921 | -44.14018 | 16656 ft | 419 kts | 65° |
| 2026-05-06 18:47 | -22.98677 | -44.11213 | 16101 ft | 416 kts | 65° |
| 2026-05-06 18:48 | -22.97422 | -44.08389 | 15554 ft | 412 kts | 65° |
| 2026-05-06 18:48 | -22.96184 | -44.05600 | 15023 ft | 407 kts | 65° |
| 2026-05-06 18:48 | -22.94960 | -44.02839 | 14509 ft | 403 kts | 64° |
| 2026-05-06 18:48 | -22.93743 | -44.00096 | 14005 ft | 399 kts | 64° |
| 2026-05-06 18:49 | -22.92549 | -43.97413 | 13618 ft | 391 kts | 64° |
| 2026-05-06 18:49 | -22.91375 | -43.94779 | 13207 ft | 383 kts | 64° |
| 2026-05-06 18:49 | -22.90222 | -43.92195 | 12829 ft | 375 kts | 64° |
| 2026-05-06 18:49 | -22.89094 | -43.89665 | 12437 ft | 368 kts | 64° |
| 2026-05-06 18:50 | -22.87998 | -43.87214 | 12081 ft | 361 kts | 64° |
| 2026-05-06 18:50 | -22.86909 | -43.84776 | 11723 ft | 354 kts | 64° |
| 2026-05-06 18:50 | -22.85843 | -43.82388 | 11382 ft | 347 kts | 64° |
| 2026-05-06 18:50 | -22.84801 | -43.80054 | 11060 ft | 340 kts | 64° |
| 2026-05-06 18:51 | -22.83779 | -43.77769 | 10745 ft | 333 kts | 64° |
| 2026-05-06 18:51 | -22.82777 | -43.75529 | 10373 ft | 327 kts | 64° |
| 2026-05-06 18:51 | -22.81794 | -43.73319 | 9966 ft | 322 kts | 65° |
| 2026-05-06 18:51 | -22.80981 | -43.71069 | 9504 ft | 318 kts | 71° |
| 2026-05-06 18:52 | -22.80393 | -43.68796 | 9041 ft | 315 kts | 75° |
| 2026-05-06 18:52 | -22.79861 | -43.66513 | 8666 ft | 309 kts | 76° |
| 2026-05-06 18:52 | -22.79343 | -43.64264 | 8303 ft | 303 kts | 75° |
| 2026-05-06 18:52 | -22.78837 | -43.62064 | 7977 ft | 297 kts | 75° |
| 2026-05-06 18:53 | -22.78339 | -43.59919 | 7666 ft | 290 kts | 75° |
| 2026-05-06 18:53 | -22.77790 | -43.57817 | 7322 ft | 285 kts | 65° |
| 2026-05-06 18:53 | -22.76570 | -43.56181 | 6977 ft | 279 kts | 34° |
| 2026-05-06 18:53 | -22.74813 | -43.55352 | 6673 ft | 274 kts | 18° |
| 2026-05-06 18:54 | -22.73002 | -43.54757 | 6356 ft | 270 kts | 18° |
| 2026-05-06 18:54 | -22.71273 | -43.54100 | 6108 ft | 262 kts | 22° |
| 2026-05-06 18:54 | -22.69625 | -43.53340 | 6002 ft | 250 kts | 26° |
| 2026-05-06 18:54 | -22.68137 | -43.52495 | 5981 ft | 234 kts | 39° |
| 2026-05-06 18:55 | -22.67184 | -43.51163 | 5970 ft | 221 kts | 72° |
| 2026-05-06 18:55 | -22.67080 | -43.49529 | 5978 ft | 220 kts | 98° |
| 2026-05-06 18:55 | -22.67432 | -43.47915 | 5825 ft | 220 kts | 108° |
| 2026-05-06 18:55 | -22.68066 | -43.46427 | 5508 ft | 219 kts | 118° |
| 2026-05-06 18:56 | -22.68912 | -43.45025 | 4999 ft | 224 kts | 125° |
| 2026-05-06 18:56 | -22.69848 | -43.43648 | 4444 ft | 229 kts | 126° |
| 2026-05-06 18:56 | -22.70802 | -43.42249 | 3862 ft | 232 kts | 124° |
| 2026-05-06 18:56 | -22.71753 | -43.40823 | 3327 ft | 234 kts | 123° |
| 2026-05-06 18:57 | -22.72696 | -43.39388 | 2846 ft | 233 kts | 123° |
| 2026-05-06 18:57 | -22.73616 | -43.37984 | 2530 ft | 223 kts | 124° |
| 2026-05-06 18:57 | -22.74490 | -43.36652 | 2282 ft | 210 kts | 123° |
| 2026-05-06 18:57 | -22.75315 | -43.35392 | 1975 ft | 198 kts | 124° |
| 2026-05-06 18:58 | -22.76080 | -43.34227 | 1673 ft | 180 kts | 124° |
| 2026-05-06 18:58 | -22.76761 | -43.33190 | 1462 ft | 163 kts | 124° |
| 2026-05-06 18:58 | -22.77391 | -43.32228 | 1268 ft | 152 kts | 125° |
| 2026-05-06 18:58 | -22.77995 | -43.31312 | 1072 ft | 147 kts | 124° |
| 2026-05-06 18:59 | -22.78584 | -43.30413 | 916 ft | 146 kts | 124° |
| 2026-05-06 18:59 | -22.79175 | -43.29512 | 749 ft | 147 kts | 126° |
| 2026-05-06 18:59 | -22.79768 | -43.28611 | 577 ft | 146 kts | 127° |
| 2026-05-06 18:59 | -22.80374 | -43.27692 | 384 ft | 155 kts | 126° |
| 2026-05-06 19:00 | -22.81011 | -43.26725 | 214 ft | 158 kts | 125° |
| 2026-05-06 19:00 | -22.81627 | -43.25791 | 34 ft | 147 kts | 126° |
| 2026-05-06 19:00 | -22.82110 | -43.25061 | 32 ft | 87 kts | 126° |
| 2026-05-06 19:00 | -22.82279 | -43.24808 | 27 ft | 43 kts | 126° |
| 2026-05-06 19:01 | -22.82357 | -43.24570 | 28 ft | 10 kts | 95° |
| 2026-05-06 19:01 | -22.82365 | -43.24482 | 27 ft | 14 kts | 90° |
| 2026-05-06 19:01 | -22.82333 | -43.24418 | 26 ft | 17 kts | 36° |
| 2026-05-06 19:01 | -22.82199 | -43.24317 | 30 ft | 8 kts | 37° |
| 2026-05-06 19:02 | -22.82190 | -43.24310 | 30 ft | 3 kts | 37° |
| 2026-05-06 19:02 | -22.82159 | -43.24293 | 30 ft | 6 kts | 6° |
| 2026-05-06 19:02 | -22.82127 | -43.24309 | 30 ft | 9 kts | 313° |
| 2026-05-06 19:02 | -22.82078 | -43.24377 | 30 ft | 13 kts | 307° |
| 2026-05-06 19:03 | -22.82018 | -43.24467 | 30 ft | 17 kts | 306° |
| 2026-05-06 19:03 | -22.81962 | -43.24552 | 30 ft | 10 kts | 305° |
| 2026-05-06 19:03 | -22.81941 | -43.24584 | 30 ft | 5 kts | 305° |
| 2026-05-06 19:03 | -22.81912 | -43.24613 | 30 ft | 7 kts | 350° |
| 2026-05-06 19:04 | -22.81857 | -43.24586 | 30 ft | 11 kts | 33° |
| 2026-05-06 19:04 | -22.81799 | -43.24543 | 30 ft | 6 kts | 35° |
| 2026-05-06 19:04 | -22.81765 | -43.24517 | 30 ft | 4 kts | 36° |
| 2026-05-06 19:04 | -22.81759 | -43.24512 | 30 ft | 2 kts | 38° |
| 2026-05-06 19:05 | -22.81742 | -43.24493 | 29 ft | 5 kts | 57° |
| 2026-05-06 19:05 | -22.81745 | -43.24452 | 30 ft | 5 kts | 123° |
| 2026-05-06 19:05 | -22.81749 | -43.24446 | 30 ft | 3 kts | 124° |
| 2026-05-06 19:05 | -22.81765 | -43.24421 | 30 ft | 3 kts | 125° |
| 2026-05-06 19:06 | -22.81768 | -43.24417 | 30 ft | 0 kts | 125° |